Terminal Aerodrome Forecast
Issued by NWS

Home | Current Version | Previous Version | Text Only | Print | Product List | Glossary On
Versions: 1 2 3 4 5 6 7 8 9 10 11 12 13 14 15 16
000
FTUS44 KTSA 032300
TAFBVO
TAF
KBVO 032338Z 0400/0424 01005KT 6SM -RA OVC090
     FM040600 01012G19KT P6SM OVC050
     FM040800 01016G23KT 5SM PL OVC030
     FM041500 02016G23KT 3SM -SN OVC020
     FM042000 02013G19KT P6SM OVC050=

USA.gov is the U.S. government's official web portal to all federal, state and local government web resources and services.